createdAt,value
2022-08-05T09:16:02.414Z,4.20
2022-08-05T09:20:36.675Z,4.10
2022-08-05T09:24:55.785Z,4.10
2022-08-05T09:29:08.877Z,4.20
2022-08-05T09:33:34.914Z,3.90
2022-08-05T09:38:17.423Z,4.00
2022-08-05T09:42:28.140Z,4.10
2022-08-05T09:46:36.920Z,3.80
2022-08-05T09:50:50.113Z,3.60
2022-08-05T09:55:06.473Z,3.80
2022-08-05T09:59:35.023Z,3.90
2022-08-05T10:04:00.485Z,3.70
2022-08-05T10:08:37.365Z,4.10
2022-08-05T10:12:49.674Z,3.90
2022-08-05T10:17:36.785Z,4.30
2022-08-05T10:21:42.571Z,3.60
2022-08-05T10:25:50.296Z,3.50
2022-08-05T10:30:06.770Z,3.80
2022-08-05T10:34:31.149Z,3.90
2022-08-05T10:38:46.617Z,3.90
2022-08-05T10:42:56.616Z,4.00
2022-08-05T10:47:26.687Z,3.90
2022-08-05T10:51:53.124Z,3.80
2022-08-05T10:56:21.455Z,3.30
2022-08-05T11:00:42.166Z,3.60
2022-08-05T11:05:04.116Z,3.40
2022-08-05T11:09:31.914Z,3.60
2022-08-05T11:13:57.753Z,3.70
2022-08-05T11:18:30.010Z,3.70
2022-08-05T11:22:49.938Z,3.50
2022-08-05T11:27:51.191Z,3.30
2022-08-05T11:32:35.133Z,3.30
2022-08-05T11:36:47.120Z,3.60
2022-08-05T11:41:34.397Z,3.30
2022-08-05T11:46:27.562Z,3.60
2022-08-05T11:50:04.466Z,3.70
2022-08-05T11:54:16.603Z,3.20
2022-08-05T11:58:40.445Z,3.10
2022-08-05T12:02:52.041Z,3.20
2022-08-05T12:07:03.848Z,3.40
2022-08-05T12:11:20.335Z,3.30
2022-08-05T12:15:37.961Z,3.40
2022-08-05T12:20:26.825Z,3.00
2022-08-05T12:24:17.606Z,3.40
2022-08-05T12:28:38.759Z,3.20
2022-08-05T12:32:51.258Z,2.80
2022-08-05T12:37:00.896Z,3.10
2022-08-05T12:41:16.175Z,3.40
2022-08-05T12:45:48.396Z,3.10
2022-08-05T12:50:04.139Z,2.90
2022-08-05T12:54:23.574Z,3.20
2022-08-05T12:58:51.067Z,3.00
2022-08-05T13:03:01.783Z,2.80
2022-08-05T13:07:16.082Z,3.00
2022-08-05T13:12:02.191Z,3.30
2022-08-05T13:15:58.176Z,3.20
2022-08-05T13:20:08.668Z,2.70
2022-08-05T13:24:36.306Z,2.90
2022-08-05T13:28:46.419Z,2.80
2022-08-05T13:32:56.416Z,3.10
2022-08-05T13:37:04.554Z,3.20
2022-08-05T13:41:16.877Z,3.00
2022-08-05T13:45:33.966Z,2.70
2022-08-05T13:49:46.573Z,2.90
2022-08-05T13:53:56.471Z,3.10
2022-08-05T13:58:06.186Z,3.20
2022-08-05T14:02:20.073Z,3.20
2022-08-05T14:06:34.691Z,3.40
2022-08-05T14:10:44.197Z,3.00
2022-08-05T14:14:52.977Z,3.00
2022-08-05T14:19:04.601Z,3.10
2022-08-05T14:23:12.962Z,3.10
2022-08-05T14:27:23.046Z,3.50
2022-08-05T14:32:02.411Z,3.50
2022-08-05T14:36:03.753Z,3.30
2022-08-05T14:40:17.205Z,3.00
2022-08-05T14:44:24.515Z,3.00
2022-08-05T14:48:38.259Z,3.00
2022-08-05T14:52:53.101Z,3.10
2022-08-05T14:57:09.732Z,3.30
2022-08-05T15:01:47.994Z,3.20
2022-08-05T15:06:07.910Z,3.30
2022-08-05T15:10:17.031Z,3.20
2022-08-05T15:14:35.034Z,3.10
2022-08-05T15:18:47.052Z,3.20
2022-08-05T15:22:56.500Z,3.90
2022-08-05T15:27:04.159Z,3.40
2022-08-05T15:31:17.441Z,3.10
2022-08-05T15:35:27.941Z,3.30
2022-08-05T15:41:01.807Z,3.50
2022-08-05T15:44:11.975Z,3.40
2022-08-05T15:48:21.233Z,3.00
2022-08-05T15:52:53.820Z,3.40
2022-08-05T15:56:57.484Z,3.50
2022-08-05T16:01:16.291Z,3.30
2022-08-05T16:05:28.245Z,3.10
2022-08-05T16:09:36.195Z,3.60
2022-08-05T16:13:45.784Z,3.40
2022-08-05T16:17:58.009Z,3.40
2022-08-05T16:22:07.613Z,3.50
2022-08-05T16:26:26.522Z,3.20
2022-08-05T16:30:36.187Z,3.10
2022-08-05T16:34:44.161Z,3.10
2022-08-05T16:38:54.312Z,3.90
2022-08-05T16:43:03.238Z,3.30
2022-08-05T16:47:11.033Z,3.30
2022-08-05T16:51:42.412Z,3.40
2022-08-05T16:55:57.890Z,3.50
2022-08-05T17:00:10.505Z,3.90
2022-08-05T17:04:20.728Z,11.70
2022-08-05T17:08:36.568Z,5.40
2022-08-05T17:13:00.689Z,4.10
2022-08-05T17:17:15.233Z,3.90
2022-08-05T17:21:23.898Z,3.90
2022-08-05T17:25:39.252Z,4.20
2022-08-05T17:29:52.764Z,4.40
2022-08-05T17:34:07.614Z,4.50
2022-08-05T17:38:20.363Z,4.00
2022-08-05T17:42:30.045Z,4.50
2022-08-05T17:46:41.006Z,4.70
2022-08-05T17:50:52.351Z,3.90
2022-08-05T17:55:01.269Z,4.80
2022-08-05T17:59:11.178Z,5.60
2022-08-05T18:07:57.816Z,5.10
2022-08-05T18:12:10.161Z,5.90
2022-08-05T18:16:20.604Z,5.70
2022-08-05T18:20:31.551Z,5.10
2022-08-05T18:24:39.924Z,5.40
2022-08-05T18:28:48.344Z,6.50
2022-08-05T18:33:00.482Z,6.20
2022-08-05T18:37:12.192Z,7.10
2022-08-05T18:41:55.277Z,6.30
2022-08-05T18:45:49.187Z,6.90
2022-08-05T18:50:15.746Z,6.70
2022-08-05T18:54:23.472Z,6.40
2022-08-05T18:58:31.267Z,6.30
2022-08-05T19:02:44.137Z,7.30
2022-08-05T19:06:53.549Z,6.80
2022-08-05T19:11:05.167Z,7.20
2022-08-05T19:15:58.259Z,7.00
2022-08-05T19:19:46.743Z,6.90
2022-08-05T19:24:08.091Z,7.00
2022-08-05T19:28:16.745Z,6.50
2022-08-05T19:32:27.938Z,5.90
2022-08-05T19:36:35.730Z,6.30
2022-08-05T19:40:45.462Z,7.30
2022-08-05T19:44:54.116Z,6.00
2022-08-05T19:49:04.201Z,5.20
2022-08-05T19:53:11.880Z,4.80
2022-08-05T19:57:49.319Z,5.30
2022-08-05T20:01:50.197Z,4.80
2022-08-05T20:05:58.001Z,5.80
2022-08-05T20:10:13.331Z,4.60
2022-08-05T20:14:26.784Z,5.00
2022-08-05T20:18:36.538Z,4.50
2022-08-05T20:22:44.359Z,5.40
2022-08-05T20:26:54.380Z,4.30
2022-08-05T20:31:06.376Z,4.60
2022-08-05T20:35:14.223Z,4.30
2022-08-05T20:39:24.055Z,4.90
2022-08-05T20:43:57.358Z,4.70
2022-08-05T20:48:00.004Z,4.70
2022-08-05T20:52:08.592Z,4.90
2022-08-05T20:56:16.238Z,4.70
2022-08-05T21:00:41.312Z,4.60
2022-08-05T21:05:02.640Z,4.90
2022-08-05T21:09:10.353Z,5.00
2022-08-05T21:13:36.767Z,4.60
2022-08-05T21:17:48.125Z,4.70
2022-08-05T21:22:00.069Z,4.60
2022-08-05T21:26:12.468Z,4.70
2022-08-05T21:30:22.008Z,4.50
2022-08-05T21:34:33.057Z,5.10
2022-08-05T21:38:43.161Z,4.70
2022-08-05T21:42:54.306Z,5.20
2022-08-05T21:47:32.833Z,5.30
2022-08-05T21:52:22.826Z,4.80
2022-08-05T21:56:16.186Z,5.00
2022-08-05T22:00:24.756Z,5.30
2022-08-05T22:04:32.424Z,4.00
2022-08-05T22:08:42.520Z,4.80
2022-08-05T22:12:50.573Z,4.60
2022-08-05T22:17:02.987Z,4.10
2022-08-05T22:21:18.739Z,4.10
2022-08-05T22:26:10.657Z,4.30
2022-08-05T22:30:17.357Z,4.30
2022-08-05T22:34:28.295Z,4.50
2022-08-05T22:38:36.671Z,4.40
2022-08-05T22:42:45.844Z,4.40
2022-08-05T22:47:00.730Z,4.70
2022-08-05T22:51:16.105Z,4.70
2022-08-05T22:55:37.209Z,4.40
2022-08-05T22:59:58.161Z,4.80
2022-08-05T23:04:06.681Z,4.60
2022-08-05T23:08:14.877Z,4.70
2022-08-05T23:12:28.859Z,5.50
2022-08-05T23:16:56.364Z,5.00
2022-08-05T23:21:06.297Z,5.30
2022-08-05T23:25:52.763Z,5.30
2022-08-05T23:29:46.242Z,5.70
2022-08-05T23:34:05.176Z,5.20
2022-08-05T23:38:14.559Z,5.50
2022-08-05T23:42:29.148Z,5.70
2022-08-05T23:46:37.470Z,5.40
2022-08-05T23:50:47.187Z,6.30
2022-08-05T23:54:55.215Z,5.70
2022-08-05T23:59:03.620Z,5.40
